createdAt,value
2022-08-30T00:01:23.635Z,53.70
2022-08-30T00:04:25.126Z,53.80
2022-08-30T00:07:26.658Z,53.70
2022-08-30T00:10:28.439Z,53.90
2022-08-30T00:13:33.533Z,54.00
2022-08-30T00:16:34.860Z,53.80
2022-08-30T00:19:37.392Z,53.80
2022-08-30T00:22:38.712Z,53.90
2022-08-30T00:25:40.552Z,53.70
2022-08-30T00:28:42.972Z,54.10
2022-08-30T00:31:44.372Z,53.70
2022-08-30T00:34:45.651Z,53.70
2022-08-30T00:37:47.462Z,53.80
2022-08-30T00:40:49.307Z,53.80
2022-08-30T00:43:51.596Z,53.80
2022-08-30T00:46:52.930Z,53.80
2022-08-30T00:49:55.800Z,53.70
2022-08-30T00:52:59.110Z,53.80
2022-08-30T00:56:00.969Z,53.80
2022-08-30T00:59:07.339Z,53.80
2022-08-30T01:02:09.462Z,53.90
2022-08-30T01:05:16.008Z,53.80
2022-08-30T01:08:17.661Z,53.70
2022-08-30T01:11:20.519Z,53.80
2022-08-30T01:14:26.057Z,53.80
2022-08-30T01:17:28.088Z,53.80
2022-08-30T01:20:35.047Z,53.80
2022-08-30T01:23:38.606Z,53.70
2022-08-30T01:26:40.276Z,53.70
2022-08-30T01:29:45.120Z,53.80
2022-08-30T01:32:46.685Z,53.80
2022-08-30T01:35:52.067Z,53.90
2022-08-30T01:38:56.025Z,53.80
2022-08-30T01:41:57.546Z,54.10
2022-08-30T01:44:59.116Z,53.90
2022-08-30T01:48:02.759Z,53.90
2022-08-30T01:51:09.508Z,53.80
2022-08-30T01:54:11.503Z,54.00
2022-08-30T01:57:14.985Z,53.80
2022-08-30T02:00:16.927Z,53.90
2022-08-30T02:03:19.275Z,53.80
2022-08-30T02:06:20.913Z,53.90
2022-08-30T02:09:23.004Z,53.70
2022-08-30T02:12:25.082Z,54.00
2022-08-30T02:15:26.512Z,54.00
2022-08-30T02:18:27.858Z,53.90
2022-08-30T02:21:29.242Z,53.80
2022-08-30T02:24:31.053Z,54.00
2022-08-30T02:27:33.085Z,53.80
2022-08-30T02:30:34.794Z,53.80
2022-08-30T02:33:37.004Z,53.90
2022-08-30T02:36:41.811Z,54.00
2022-08-30T02:39:43.740Z,53.80
2022-08-30T02:42:48.588Z,53.90
2022-08-30T02:45:50.146Z,53.80
2022-08-30T02:48:51.590Z,54.00
2022-08-30T02:51:52.858Z,53.80
2022-08-30T02:54:54.728Z,54.00
2022-08-30T02:57:56.238Z,54.20
2022-08-30T03:01:00.766Z,54.00
2022-08-30T03:04:02.266Z,53.90
2022-08-30T03:07:03.734Z,54.00
2022-08-30T03:10:06.417Z,53.90
2022-08-30T03:13:11.586Z,53.80
2022-08-30T03:16:16.145Z,53.80
2022-08-30T03:19:17.527Z,53.90
2022-08-30T03:22:18.935Z,53.90
2022-08-30T03:25:20.884Z,53.80
2022-08-30T03:28:22.335Z,53.80
2022-08-30T03:31:23.766Z,54.00
2022-08-30T03:34:25.594Z,53.90
2022-08-30T03:37:27.575Z,54.00
2022-08-30T03:40:29.609Z,53.90
2022-08-30T03:43:32.684Z,54.00
2022-08-30T03:46:37.233Z,53.80
2022-08-30T03:49:38.864Z,53.90
2022-08-30T03:52:40.163Z,53.80
2022-08-30T03:55:42.092Z,53.90
2022-08-30T03:58:43.857Z,53.80
2022-08-30T04:01:47.073Z,53.90
2022-08-30T04:04:49.092Z,53.80
2022-08-30T04:07:51.210Z,53.90
2022-08-30T04:10:53.260Z,53.70
2022-08-30T04:13:57.690Z,53.70
2022-08-30T04:17:02.146Z,53.90
2022-08-30T04:20:03.599Z,53.90
2022-08-30T04:23:06.339Z,53.60
2022-08-30T04:26:08.469Z,53.80
2022-08-30T04:29:11.508Z,53.80
2022-08-30T04:32:12.968Z,53.80
2022-08-30T04:35:14.677Z,53.70
2022-08-30T04:38:16.508Z,53.90
2022-08-30T04:41:18.883Z,53.60
2022-08-30T04:44:25.183Z,53.60
2022-08-30T04:47:26.807Z,53.60
2022-08-30T04:50:28.108Z,53.70
2022-08-30T04:53:29.457Z,53.70
2022-08-30T04:56:32.645Z,53.80
2022-08-30T04:59:34.020Z,53.70
2022-08-30T05:02:35.458Z,53.80
2022-08-30T05:05:40.166Z,53.70
2022-08-30T05:08:41.786Z,53.80
2022-08-30T05:11:48.544Z,53.80
2022-08-30T05:14:49.945Z,53.80
2022-08-30T05:17:51.393Z,53.70
2022-08-30T05:21:02.540Z,54.20
2022-08-30T05:24:03.993Z,53.90
2022-08-30T05:27:05.913Z,53.80
2022-08-30T05:30:07.773Z,53.70
2022-08-30T05:33:12.142Z,53.70
2022-08-30T05:36:14.102Z,53.80
2022-08-30T05:39:15.399Z,53.90
2022-08-30T05:42:22.871Z,53.80
2022-08-30T05:45:24.301Z,53.80
2022-08-30T05:48:25.791Z,53.70
2022-08-30T05:51:28.130Z,53.90
2022-08-30T05:54:29.410Z,53.90
2022-08-30T05:57:33.222Z,53.90
2022-08-30T06:00:37.263Z,53.70
2022-08-30T06:03:38.642Z,53.90
2022-08-30T06:06:41.034Z,53.80
2022-08-30T06:09:42.428Z,54.00
2022-08-30T06:12:44.301Z,53.90
2022-08-30T06:15:46.284Z,54.00
2022-08-30T06:18:47.977Z,54.00
2022-08-30T06:21:49.626Z,54.40
2022-08-30T06:24:57.590Z,54.30
2022-08-30T06:28:00.177Z,54.30
2022-08-30T06:31:01.662Z,54.40
2022-08-30T06:34:03.256Z,54.50
2022-08-30T06:37:04.700Z,54.50
2022-08-30T06:40:06.569Z,54.40
2022-08-30T06:43:08.879Z,54.50
2022-08-30T06:46:10.914Z,54.60
2022-08-30T06:49:16.465Z,54.60
2022-08-30T06:52:17.764Z,54.50
2022-08-30T06:55:20.764Z,54.50
2022-08-30T06:58:22.843Z,54.50
2022-08-30T07:01:25.048Z,54.40
2022-08-30T07:04:26.503Z,54.20
2022-08-30T07:07:28.114Z,54.20
2022-08-30T07:10:30.862Z,54.30
2022-08-30T07:13:33.182Z,54.30
2022-08-30T07:16:34.711Z,54.10
2022-08-30T07:19:36.012Z,54.20
2022-08-30T07:22:37.343Z,54.10
2022-08-30T07:25:39.701Z,54.00
2022-08-30T07:28:43.366Z,53.70
2022-08-30T07:31:45.734Z,53.90
2022-08-30T07:34:47.362Z,53.80
2022-08-30T07:37:53.140Z,53.80
2022-08-30T07:40:54.600Z,53.90
2022-08-30T07:43:57.009Z,53.80
2022-08-30T07:46:58.339Z,53.80
2022-08-30T07:49:59.929Z,53.70
2022-08-30T07:53:01.556Z,53.60
2022-08-30T07:56:04.849Z,53.60
2022-08-30T07:59:06.808Z,53.50
2022-08-30T08:02:08.293Z,53.40
2022-08-30T08:05:12.809Z,53.50
2022-08-30T08:08:18.520Z,53.40
2022-08-30T08:11:21.406Z,53.40
2022-08-30T08:14:23.363Z,53.50
2022-08-30T08:17:24.716Z,53.10
2022-08-30T08:20:27.046Z,53.30
2022-08-30T08:23:28.460Z,53.40
2022-08-30T08:26:29.854Z,53.20
2022-08-30T08:29:32.067Z,53.20
2022-08-30T08:32:33.639Z,53.20
2022-08-30T08:35:35.315Z,53.10
2022-08-30T08:38:36.624Z,53.30
2022-08-30T08:41:44.503Z,53.20
2022-08-30T08:44:50.155Z,53.10
2022-08-30T08:47:58.389Z,53.20
2022-08-30T08:51:15.122Z,53.10
2022-08-30T08:54:20.973Z,53.10
2022-08-30T08:57:24.743Z,53.00
2022-08-30T09:00:28.692Z,53.10
2022-08-30T09:03:30.057Z,53.00
2022-08-30T09:06:45.498Z,52.80
2022-08-30T09:09:47.143Z,52.80
2022-08-30T09:12:51.594Z,52.70
2022-08-30T09:15:55.506Z,52.70
2022-08-30T09:18:56.870Z,52.60
2022-08-30T09:21:59.030Z,52.60
2022-08-30T09:25:05.091Z,52.60
2022-08-30T09:28:09.744Z,52.80
2022-08-30T09:31:19.125Z,52.60
2022-08-30T09:34:21.537Z,52.60
2022-08-30T09:37:25.378Z,52.30
2022-08-30T09:40:28.789Z,52.30
2022-08-30T09:43:31.539Z,52.30
2022-08-30T09:46:33.694Z,52.10
2022-08-30T09:49:36.947Z,52.20
2022-08-30T09:52:42.286Z,52.30
2022-08-30T09:55:51.862Z,52.20
2022-08-30T09:58:59.266Z,52.20
2022-08-30T10:02:03.511Z,52.10
2022-08-30T10:05:09.576Z,52.50
2022-08-30T10:08:17.706Z,52.10
2022-08-30T10:11:22.468Z,52.10
2022-08-30T10:14:34.039Z,52.20
2022-08-30T10:17:42.683Z,52.20
2022-08-30T10:20:49.663Z,52.20
2022-08-30T10:23:53.363Z,52.20
2022-08-30T10:26:57.753Z,52.20
2022-08-30T10:30:01.813Z,52.10
2022-08-30T10:33:05.642Z,52.20
2022-08-30T10:36:10.485Z,52.10
2022-08-30T10:39:18.842Z,52.10
2022-08-30T10:42:22.277Z,52.30
2022-08-30T10:45:24.611Z,52.20
2022-08-30T10:48:30.226Z,52.10
2022-08-30T10:51:41.502Z,52.20
2022-08-30T10:54:46.280Z,52.00
2022-08-30T10:57:51.250Z,52.10
2022-08-30T11:00:59.661Z,52.10
2022-08-30T11:04:16.640Z,52.00
2022-08-30T11:07:25.895Z,52.10
2022-08-30T11:10:35.399Z,52.00
2022-08-30T11:13:38.141Z,52.10
2022-08-30T11:16:40.749Z,52.20
2022-08-30T11:19:44.812Z,52.30
2022-08-30T11:22:55.637Z,52.10
2022-08-30T11:25:59.818Z,52.20
2022-08-30T11:29:04.928Z,52.10
2022-08-30T11:32:22.766Z,51.90
2022-08-30T11:35:47.320Z,52.00
2022-08-30T11:38:57.685Z,52.00
2022-08-30T11:42:10.019Z,51.90
2022-08-30T11:45:28.357Z,51.90
2022-08-30T11:48:53.611Z,51.80
2022-08-30T11:52:33.358Z,52.00
2022-08-30T11:55:27.733Z,51.90
2022-08-30T11:58:36.159Z,52.00
2022-08-30T12:01:49.643Z,51.90
2022-08-30T12:04:55.400Z,52.10
2022-08-30T12:07:58.122Z,52.00
2022-08-30T12:11:01.210Z,51.90
2022-08-30T12:14:08.205Z,52.10
2022-08-30T12:17:25.227Z,52.00
2022-08-30T12:20:28.911Z,52.00
2022-08-30T12:23:35.034Z,51.80
2022-08-30T12:26:37.712Z,51.80
2022-08-30T12:29:49.465Z,52.00
2022-08-30T12:32:52.224Z,52.10
2022-08-30T12:35:53.864Z,52.00
2022-08-30T12:39:05.644Z,52.20
2022-08-30T12:42:14.672Z,52.10
2022-08-30T12:45:24.692Z,52.10
2022-08-30T12:48:26.779Z,52.40
2022-08-30T12:51:37.448Z,52.30
2022-08-30T12:54:39.487Z,52.10
2022-08-30T12:57:53.807Z,52.20
2022-08-30T13:01:16.735Z,52.10
2022-08-30T13:04:21.387Z,52.10
2022-08-30T13:07:24.257Z,52.20
2022-08-30T13:10:25.756Z,52.40
2022-08-30T13:13:30.736Z,52.10
2022-08-30T13:16:35.789Z,52.30
2022-08-30T13:19:40.581Z,52.20
2022-08-30T13:23:00.050Z,52.40
2022-08-30T13:26:01.863Z,52.40
2022-08-30T13:29:05.103Z,52.40
2022-08-30T13:32:13.073Z,52.40
2022-08-30T13:35:15.244Z,52.40
2022-08-30T13:38:16.829Z,52.50
2022-08-30T13:41:19.483Z,52.40
2022-08-30T13:44:21.414Z,52.40
2022-08-30T13:47:38.623Z,52.40
2022-08-30T13:50:42.208Z,52.50
2022-08-30T13:53:58.741Z,52.40
2022-08-30T13:57:00.414Z,52.40
2022-08-30T14:00:04.780Z,52.50
2022-08-30T14:03:13.891Z,52.40
2022-08-30T14:06:32.859Z,52.60
2022-08-30T14:09:36.180Z,52.50
2022-08-30T14:12:53.216Z,52.50
2022-08-30T14:19:17.394Z,52.50
2022-08-30T14:22:19.901Z,52.50
2022-08-30T14:25:22.778Z,52.70
2022-08-30T14:28:25.559Z,52.70
2022-08-30T14:31:29.410Z,52.50
2022-08-30T14:34:30.789Z,52.60
2022-08-30T14:37:34.887Z,52.60
2022-08-30T14:40:36.610Z,52.50
2022-08-30T14:43:39.490Z,52.70
2022-08-30T14:46:41.315Z,52.60
2022-08-30T14:49:42.877Z,52.60
2022-08-30T14:52:45.946Z,52.50
2022-08-30T14:55:47.395Z,52.60
2022-08-30T14:58:49.269Z,52.60
2022-08-30T15:01:51.076Z,52.70
2022-08-30T15:04:52.415Z,52.70
2022-08-30T15:07:55.847Z,52.60
2022-08-30T15:10:58.270Z,52.60
2022-08-30T15:13:59.683Z,52.60
2022-08-30T15:17:03.425Z,52.50
2022-08-30T15:20:09.832Z,52.70
2022-08-30T15:23:12.423Z,52.70
2022-08-30T15:26:18.424Z,52.60
2022-08-30T15:29:20.282Z,52.80
2022-08-30T15:32:22.030Z,52.70
2022-08-30T15:35:23.483Z,52.70
2022-08-30T15:38:25.808Z,52.80
2022-08-30T15:41:27.911Z,52.70
2022-08-30T15:44:30.291Z,52.70
2022-08-30T15:47:31.603Z,52.80
2022-08-30T15:50:36.122Z,52.70
2022-08-30T15:53:38.000Z,53.00
2022-08-30T15:56:39.766Z,52.70
2022-08-30T15:59:41.135Z,52.90
2022-08-30T16:02:43.107Z,52.70
2022-08-30T16:05:45.253Z,52.70
2022-08-30T16:08:47.718Z,52.70
2022-08-30T16:11:49.630Z,52.70
2022-08-30T16:14:51.318Z,52.60
2022-08-30T16:17:52.723Z,52.60
2022-08-30T16:21:04.337Z,52.70
2022-08-30T16:24:07.623Z,52.70
2022-08-30T16:27:12.158Z,52.60
2022-08-30T16:30:15.177Z,52.70
2022-08-30T16:33:16.667Z,52.90
2022-08-30T16:36:18.296Z,52.70
2022-08-30T16:39:23.435Z,52.70
2022-08-30T16:42:24.736Z,52.70
2022-08-30T16:45:28.627Z,52.70
2022-08-30T16:48:34.255Z,52.90
2022-08-30T16:51:38.207Z,52.80
2022-08-30T16:54:40.037Z,52.80
2022-08-30T16:57:42.014Z,52.70
2022-08-30T17:00:47.523Z,53.30
2022-08-30T17:03:49.813Z,52.70
2022-08-30T17:06:52.073Z,52.80
2022-08-30T17:09:54.273Z,52.70
2022-08-30T17:12:55.682Z,52.60
2022-08-30T17:15:57.508Z,52.70
2022-08-30T17:19:00.798Z,52.70
2022-08-30T17:22:02.561Z,52.70
2022-08-30T17:25:04.811Z,52.70
2022-08-30T17:28:07.212Z,52.90
2022-08-30T17:31:09.380Z,52.70
2022-08-30T17:34:12.450Z,52.70
2022-08-30T17:37:14.890Z,52.70
2022-08-30T17:40:20.166Z,53.00
2022-08-30T17:43:21.466Z,52.70
2022-08-30T17:46:22.958Z,52.80
2022-08-30T17:49:27.249Z,52.80
2022-08-30T17:52:31.687Z,52.90
2022-08-30T17:55:33.507Z,52.80
2022-08-30T17:58:34.807Z,52.80
2022-08-30T18:01:36.580Z,52.80
2022-08-30T18:04:37.997Z,52.70
2022-08-30T18:07:39.813Z,52.80
2022-08-30T18:10:41.926Z,52.80
2022-08-30T18:13:44.249Z,52.70
2022-08-30T18:16:50.052Z,52.90
2022-08-30T18:20:07.994Z,52.90
2022-08-30T18:23:13.125Z,52.90
2022-08-30T18:26:14.965Z,52.90
2022-08-30T18:29:26.222Z,52.70
2022-08-30T18:32:35.306Z,52.80
2022-08-30T18:35:38.858Z,52.80
2022-08-30T18:38:44.571Z,52.90
2022-08-30T18:41:50.211Z,52.90
2022-08-30T18:44:52.658Z,52.90
2022-08-30T18:47:54.622Z,53.10
2022-08-30T18:50:56.123Z,53.10
2022-08-30T18:53:57.635Z,53.10
2022-08-30T18:56:59.762Z,53.00
2022-08-30T19:00:02.791Z,53.10
2022-08-30T19:03:04.205Z,53.00
2022-08-30T19:06:07.012Z,53.10
2022-08-30T19:09:09.136Z,53.10
2022-08-30T19:12:11.831Z,53.20
2022-08-30T19:15:13.520Z,53.00
2022-08-30T19:18:17.289Z,53.10
2022-08-30T19:21:20.252Z,53.10
2022-08-30T19:24:22.329Z,53.20
2022-08-30T19:27:37.685Z,53.10
2022-08-30T19:30:41.318Z,53.20
2022-08-30T19:33:44.928Z,53.20
2022-08-30T19:36:46.348Z,53.20
2022-08-30T19:39:48.478Z,53.20
2022-08-30T19:42:50.938Z,53.20
2022-08-30T19:45:54.139Z,53.30
2022-08-30T19:48:55.568Z,53.30
2022-08-30T19:51:56.937Z,53.20
2022-08-30T19:55:01.385Z,53.40
2022-08-30T19:58:03.896Z,53.40
2022-08-30T20:01:12.755Z,53.20
2022-08-30T20:04:27.165Z,53.40
2022-08-30T20:07:30.327Z,53.50
2022-08-30T20:10:33.045Z,53.40
2022-08-30T20:13:38.315Z,53.40
2022-08-30T20:16:39.899Z,53.30
2022-08-30T20:19:41.505Z,53.40
2022-08-30T20:22:43.080Z,53.40
2022-08-30T20:25:53.778Z,53.40
2022-08-30T20:28:55.674Z,53.10
2022-08-30T20:31:57.101Z,53.40
2022-08-30T20:34:58.485Z,53.30
2022-08-30T20:38:05.453Z,53.40
2022-08-30T20:41:09.387Z,53.30
2022-08-30T20:44:11.915Z,53.40
2022-08-30T20:47:16.628Z,53.40
2022-08-30T20:50:18.713Z,53.60
2022-08-30T20:53:20.011Z,53.40
2022-08-30T20:56:22.313Z,53.40
2022-08-30T20:59:24.868Z,53.80
2022-08-30T21:02:26.326Z,53.70
2022-08-30T21:05:28.255Z,53.30
2022-08-30T21:08:29.829Z,53.50
2022-08-30T21:11:31.250Z,53.30
2022-08-30T21:14:33.239Z,53.50
2022-08-30T21:17:34.800Z,53.40
2022-08-30T21:20:36.299Z,53.40
2022-08-30T21:23:37.711Z,53.50
2022-08-30T21:26:39.912Z,53.40
2022-08-30T21:29:41.848Z,53.40
2022-08-30T21:32:43.088Z,53.60
2022-08-30T21:35:55.707Z,53.40
2022-08-30T21:38:57.564Z,53.60
2022-08-30T21:42:02.267Z,53.40
2022-08-30T21:45:06.486Z,53.40
2022-08-30T21:48:07.909Z,53.50
2022-08-30T21:51:09.871Z,53.40
2022-08-30T21:54:12.345Z,53.40
2022-08-30T21:57:16.156Z,53.60
2022-08-30T22:00:20.115Z,53.50
2022-08-30T22:03:21.553Z,53.40
2022-08-30T22:06:25.132Z,53.80
2022-08-30T22:09:32.433Z,53.60
2022-08-30T22:12:34.103Z,53.60
2022-08-30T22:15:39.413Z,53.70
2022-08-30T22:18:41.552Z,53.50
2022-08-30T22:21:43.933Z,53.60
2022-08-30T22:24:45.570Z,53.60
2022-08-30T22:27:46.964Z,54.20
2022-08-30T22:30:49.919Z,53.60
2022-08-30T22:33:51.962Z,53.60
2022-08-30T22:36:53.272Z,53.60
2022-08-30T22:39:54.491Z,53.60
2022-08-30T22:42:55.810Z,53.60
2022-08-30T22:46:00.956Z,53.70
2022-08-30T22:49:03.362Z,53.60
2022-08-30T22:52:04.697Z,53.60
2022-08-30T22:55:07.240Z,53.60
2022-08-30T22:58:08.829Z,53.60
2022-08-30T23:01:17.462Z,53.60
2022-08-30T23:04:18.758Z,53.70
2022-08-30T23:07:20.028Z,53.60
2022-08-30T23:10:27.098Z,53.60
2022-08-30T23:13:28.407Z,53.70
2022-08-30T23:16:33.975Z,53.60
2022-08-30T23:19:35.436Z,53.50
2022-08-30T23:22:36.716Z,53.70
2022-08-30T23:25:53.507Z,53.50
2022-08-30T23:29:05.846Z,53.50
2022-08-30T23:32:22.476Z,53.60
2022-08-30T23:35:35.708Z,53.50
2022-08-30T23:38:51.755Z,53.50
2022-08-30T23:42:05.721Z,53.60
2022-08-30T23:45:22.155Z,53.40
2022-08-30T23:48:35.717Z,53.80
2022-08-30T23:51:52.137Z,52.60
2022-08-30T23:55:05.738Z,53.60
2022-08-30T23:58:22.033Z,53.40
